Time;durP1;ratioP1;P1;durP2;ratioP2;P2;SDS_P1;SDS_P2;PMS_P1;PMS_P2;Temp;Humidity;BMP_temperature;BMP_pressure;BME280_temperature;BME280_humidity;BME280_pressure;Samples;Min_cycle;Max_cycle;Signal;HPM_P1;HPM_P2
2021/11/28 00:00:39;;;;;;;6.07;5.10;;;2.80;99.90;;;;;;5032595;28;20217;-58
2021/11/28 00:03:08;;;;;;;6.13;5.53;;;2.70;99.90;;;;;;5032047;28;20224;-57
2021/11/28 00:05:36;;;;;;;6.70;5.68;;;2.60;99.90;;;;;;5031955;28;20204;-59
2021/11/28 00:08:14;;;;;;;7.93;5.47;;;2.70;99.90;;;;;;5034183;28;20228;-59
2021/11/28 00:10:53;;;;;;;6.43;5.35;;;2.80;99.90;;;;;;5052119;28;20204;-58
2021/11/28 00:16:18;;;;;;;8.38;6.40;;;2.90;99.90;;;;;;4996122;28;20193;-59
2021/11/28 00:18:47;;;;;;;8.98;7.13;;;3.00;99.90;;;;;;5032176;28;20267;-59
2021/11/28 00:21:15;;;;;;;10.80;7.85;;;3.10;99.90;;;;;;5030458;28;20209;-57
2021/11/28 00:23:44;;;;;;;8.35;7.53;;;3.10;99.90;;;;;;5032213;28;20659;-59
2021/11/28 00:26:13;;;;;;;8.63;6.90;;;3.10;99.90;;;;;;5031885;28;20264;-58
2021/11/28 00:28:44;;;;;;;9.30;6.82;;;;;;;;;;5031907;28;20217;-58
2021/11/28 00:31:12;;;;;;;9.05;8.15;;;2.80;99.90;;;;;;5032108;28;20219;-58
2021/11/28 00:33:41;;;;;;;8.13;7.32;;;2.60;99.90;;;;;;5031715;28;20228;-57
2021/11/28 00:36:10;;;;;;;10.38;7.45;;;2.60;99.90;;;;;;5031924;28;20197;-58
2021/11/28 00:38:38;;;;;;;7.25;6.45;;;2.70;99.90;;;;;;5030261;28;20267;-59
2021/11/28 00:41:07;;;;;;;8.65;7.20;;;2.90;99.90;;;;;;5031955;28;20765;-58
2021/11/28 00:43:35;;;;;;;9.00;7.43;;;2.90;99.90;;;;;;5031337;28;20251;-58
2021/11/28 00:46:05;;;;;;;6.95;6.35;;;3.00;99.90;;;;;;5031351;28;20193;-60
2021/11/28 00:48:36;;;;;;;11.32;7.25;;;3.00;99.90;;;;;;5031266;28;20236;-58
2021/11/28 00:53:58;;;;;;;9.05;7.25;;;3.00;99.90;;;;;;5021592;28;20248;-59
2021/11/28 00:56:26;;;;;;;7.50;5.70;;;2.90;99.90;;;;;;5029790;28;20193;-61
2021/11/28 00:58:54;;;;;;;7.30;6.00;;;2.80;99.90;;;;;;5031756;28;20223;-59
2021/11/28 01:01:26;;;;;;;7.32;5.50;;;2.80;99.90;;;;;;5031156;28;20259;-58
2021/11/28 01:03:54;;;;;;;5.30;4.85;;;2.90;99.90;;;;;;5030178;28;20211;-58
2021/11/28 01:06:22;;;;;;;5.88;5.25;;;2.60;99.90;;;;;;5029479;28;20200;-59
2021/11/28 01:08:50;;;;;;;8.23;6.32;;;2.50;99.90;;;;;;5050060;28;20594;-58
2021/11/28 01:11:22;;;;;;;9.90;6.25;;;2.50;99.90;;;;;;5050167;28;20199;-58
2021/11/28 01:13:50;;;;;;;10.13;6.38;;;2.50;99.90;;;;;;5035707;28;20203;-58
2021/11/28 01:16:19;;;;;;;9.45;7.13;;;2.70;99.90;;;;;;5030972;28;20181;-59
2021/11/28 01:18:50;;;;;;;7.80;6.93;;;2.60;99.90;;;;;;5030181;28;20221;-59
2021/11/28 01:21:19;;;;;;;8.68;6.15;;;2.50;99.90;;;;;;5029611;28;20216;-58
2021/11/28 01:23:47;;;;;;;7.97;6.68;;;2.60;99.90;;;;;;5031341;28;20193;-58
2021/11/28 01:26:16;;;;;;;8.30;6.45;;;2.60;99.90;;;;;;5031055;28;20196;-59
2021/11/28 01:28:44;;;;;;;6.72;6.00;;;2.60;99.90;;;;;;5031532;28;20217;-60
2021/11/28 01:31:17;;;;;;;6.00;5.18;;;2.60;99.90;;;;;;5031079;28;20189;-58
2021/11/28 01:33:46;;;;;;;8.52;6.00;;;2.70;99.90;;;;;;5031259;28;20817;-58
2021/11/28 01:36:15;;;;;;;12.55;7.18;;;2.80;99.90;;;;;;5030522;28;20190;-62
2021/11/28 01:38:45;;;;;;;11.05;9.90;;;2.60;99.90;;;;;;5031578;28;20213;-59
2021/11/28 01:41:13;;;;;;;13.43;10.75;;;2.50;99.90;;;;;;5031357;28;20210;-58
2021/11/28 01:43:41;;;;;;;9.32;7.28;;;2.60;99.90;;;;;;5029842;28;20209;-58
2021/11/28 01:46:10;;;;;;;12.98;7.07;;;2.60;99.90;;;;;;5030021;28;20559;-59
2021/11/28 01:48:38;;;;;;;8.32;7.28;;;2.40;99.90;;;;;;5029348;28;20304;-60
2021/11/28 01:51:07;;;;;;;12.93;8.45;;;2.40;99.90;;;;;;5046577;28;20206;-58
2021/11/28 01:53:38;;;;;;;11.23;7.65;;;2.40;99.90;;;;;;5035393;28;20235;-58
2021/11/28 01:56:07;;;;;;;8.82;7.63;;;2.60;99.90;;;;;;5049711;28;20246;-59
2021/11/28 01:58:39;;;;;;;15.65;8.80;;;2.60;99.90;;;;;;5036396;28;20697;-60
2021/11/28 02:01:12;;;;;;;8.73;7.80;;;2.70;99.90;;;;;;5029726;28;20730;-58
2021/11/28 02:03:42;;;;;;;11.50;6.65;;;2.70;99.90;;;;;;5046053;28;20301;-57
2021/11/28 02:06:13;;;;;;;12.18;8.55;;;2.60;99.90;;;;;;5030564;28;20719;-59
2021/11/28 02:08:44;;;;;;;9.68;7.38;;;2.50;99.90;;;;;;5036799;28;20228;-60
2021/11/28 02:11:13;;;;;;;9.10;7.93;;;2.40;99.90;;;;;;5049723;28;20612;-59
2021/11/28 02:13:42;;;;;;;9.73;6.50;;;2.50;99.90;;;;;;5034701;28;20236;-58
2021/11/28 02:16:13;;;;;;;7.65;6.60;;;2.60;99.90;;;;;;5029762;28;20193;-58
2021/11/28 02:18:43;;;;;;;8.60;6.15;;;2.60;99.90;;;;;;5033174;28;20221;-59
2021/11/28 02:21:14;;;;;;;8.10;7.28;;;2.70;99.90;;;;;;5034247;28;20555;-57
2021/11/28 02:23:43;;;;;;;9.60;6.45;;;2.70;99.90;;;;;;5052933;28;20224;-58
2021/11/28 02:26:15;;;;;;;12.98;7.47;;;2.80;99.90;;;;;;5052714;28;20740;-59
2021/11/28 02:28:45;;;;;;;9.73;7.30;;;;;;;;;;5038863;28;20259;-60
2021/11/28 02:31:14;;;;;;;9.30;6.45;;;2.80;99.90;;;;;;5034247;28;20189;-58
2021/11/28 02:33:42;;;;;;;9.63;8.02;;;2.80;99.90;;;;;;5033961;28;20698;-58
2021/11/28 02:36:10;;;;;;;9.63;7.95;;;2.80;99.90;;;;;;5038560;28;20204;-60
2021/11/28 02:38:40;;;;;;;13.05;9.25;;;2.90;99.90;;;;;;5033399;28;20233;-59
2021/11/28 02:41:10;;;;;;;15.20;10.48;;;2.90;99.90;;;;;;5033027;28;20213;-58
2021/11/28 02:43:40;;;;;;;12.68;10.23;;;2.80;99.90;;;;;;5043088;28;20252;-58
2021/11/28 02:46:10;;;;;;;16.27;8.52;;;2.80;99.90;;;;;;5049312;28;20235;-59
2021/11/28 02:48:39;;;;;;;14.10;8.45;;;2.80;99.90;;;;;;5033328;28;20733;-59
2021/11/28 02:51:07;;;;;;;8.98;6.55;;;2.40;99.90;;;;;;5033901;28;20193;-57
2021/11/28 02:53:37;;;;;;;10.43;6.82;;;2.30;99.90;;;;;;5048223;28;20216;-58
2021/11/28 02:56:06;;;;;;;15.30;8.15;;;2.30;99.90;;;;;;5052463;28;20215;-58
2021/11/28 02:58:36;;;;;;;12.45;9.50;;;2.30;99.90;;;;;;5048042;28;20235;-59
2021/11/28 03:01:09;;;;;;;10.35;7.75;;;2.10;99.90;;;;;;5049371;28;20193;-59
2021/11/28 03:03:39;;;;;;;10.02;7.90;;;2.00;99.90;;;;;;5048222;28;20713;-57
2021/11/28 03:06:08;;;;;;;9.10;6.70;;;2.20;99.90;;;;;;5033670;28;20606;-60
2021/11/28 03:08:38;;;;;;;9.23;7.00;;;2.40;99.90;;;;;;5051155;28;20220;-59
2021/11/28 03:11:10;;;;;;;8.90;7.30;;;2.40;99.90;;;;;;5052249;28;20193;-58
2021/11/28 03:13:41;;;;;;;9.50;6.57;;;2.40;99.90;;;;;;5037287;28;20217;-59
2021/11/28 03:16:12;;;;;;;11.25;7.90;;;2.50;99.90;;;;;;5031892;28;20181;-59
2021/11/28 03:18:41;;;;;;;8.85;6.88;;;2.60;99.90;;;;;;5032130;28;20621;-60
2021/11/28 03:21:11;;;;;;;10.02;6.40;;;2.60;99.90;;;;;;5033365;28;20193;-58
2021/11/28 03:23:41;;;;;;;8.88;6.25;;;2.70;99.90;;;;;;5048150;28;20232;-58
2021/11/28 03:26:13;;;;;;;9.40;6.55;;;;;;;;;;5032788;28;20673;-58
2021/11/28 03:28:43;;;;;;;12.98;6.75;;;2.80;99.90;;;;;;5032756;28;20710;-60
2021/11/28 03:31:15;;;;;;;8.80;6.60;;;2.80;99.90;;;;;;5031694;28;20217;-56
2021/11/28 03:34:02;;;;;;;8.77;7.32;;;2.80;99.90;;;;;;5033031;28;20185;-58
2021/11/28 03:36:38;;;;;;;12.85;7.25;;;2.90;99.90;;;;;;5031382;28;20231;-60
2021/11/28 03:39:08;;;;;;;8.75;6.70;;;2.90;99.90;;;;;;5031852;28;20618;-59
2021/11/28 03:41:38;;;;;;;9.30;6.95;;;3.00;99.90;;;;;;5031344;28;20216;-58
2021/11/28 03:44:07;;;;;;;7.30;6.13;;;2.90;99.90;;;;;;5045347;28;20365;-58
2021/11/28 03:46:51;;;;;;;6.70;5.75;;;2.80;99.90;;;;;;5038727;28;20212;-59
2021/11/28 03:49:19;;;;;;;8.48;6.82;;;2.90;99.90;;;;;;5051432;28;20196;-59
2021/11/28 03:51:48;;;;;;;9.82;5.95;;;2.90;99.90;;;;;;5051236;28;20216;-58
2021/11/28 03:54:16;;;;;;;8.55;6.35;;;2.90;99.90;;;;;;5031533;28;20352;-58
2021/11/28 03:56:45;;;;;;;6.45;4.85;;;2.80;99.90;;;;;;5031177;28;20227;-59
2021/11/28 03:59:15;;;;;;;6.15;5.03;;;2.80;99.90;;;;;;5031079;28;20284;-60
2021/11/28 04:01:44;;;;;;;9.05;6.30;;;2.90;99.90;;;;;;5030732;28;20574;-58
2021/11/28 04:04:12;;;;;;;6.90;5.95;;;2.90;99.90;;;;;;5055495;28;20700;-58
2021/11/28 04:07:06;;;;;;;8.93;5.30;;;3.00;99.90;;;;;;5029637;28;20224;-59
2021/11/28 04:09:36;;;;;;;7.93;5.63;;;2.90;99.90;;;;;;5045858;28;20216;-59
2021/11/28 04:12:09;;;;;;;6.00;5.18;;;2.90;99.90;;;;;;5049050;28;20224;-58
2021/11/28 04:14:40;;;;;;;5.88;5.30;;;3.00;99.90;;;;;;5031148;28;20201;-58
2021/11/28 04:17:09;;;;;;;8.77;6.63;;;3.00;99.90;;;;;;5030648;28;20227;-60
2021/11/28 04:19:43;;;;;;;7.63;5.75;;;2.90;99.90;;;;;;5030853;28;20667;-60
2021/11/28 04:22:11;;;;;;;7.57;5.75;;;2.90;99.90;;;;;;5030561;28;20290;-58
2021/11/28 04:24:42;;;;;;;7.95;5.93;;;2.90;99.90;;;;;;5030474;28;20234;-57
2021/11/28 04:27:11;;;;;;;7.40;6.00;;;3.00;99.90;;;;;;5030212;28;20220;-60
2021/11/28 04:29:40;;;;;;;9.15;6.93;;;2.90;99.90;;;;;;5032149;28;20189;-59
2021/11/28 04:32:08;;;;;;;6.85;5.95;;;2.90;99.90;;;;;;5030572;28;20252;-57
2021/11/28 04:34:45;;;;;;;8.68;6.97;;;2.70;99.90;;;;;;5030649;28;20188;-58
2021/11/28 04:37:13;;;;;;;16.88;8.20;;;2.70;99.90;;;;;;5049795;28;20228;-59
2021/11/28 04:39:41;;;;;;;9.38;6.05;;;2.50;99.90;;;;;;5050168;28;20597;-60
2021/11/28 04:42:11;;;;;;;8.32;6.07;;;2.40;99.90;;;;;;5031218;28;20218;-58
2021/11/28 04:44:39;;;;;;;13.88;7.15;;;2.40;99.90;;;;;;5030350;28;20642;-59
2021/11/28 04:47:07;;;;;;;9.90;6.40;;;2.30;99.90;;;;;;5030189;28;20610;-60
2021/11/28 04:49:36;;;;;;;7.85;6.28;;;2.20;99.90;;;;;;5030718;28;20217;-58
2021/11/28 04:52:04;;;;;;;6.65;5.95;;;2.20;99.90;;;;;;5029776;28;20702;-57
2021/11/28 04:54:33;;;;;;;10.02;7.25;;;2.40;99.90;;;;;;5030312;28;20216;-58
2021/11/28 04:57:01;;;;;;;6.60;6.00;;;2.60;99.90;;;;;;5030072;28;20702;-59
2021/11/28 04:59:31;;;;;;;9.50;6.13;;;2.70;99.90;;;;;;5030590;28;20193;-59
2021/11/28 05:01:59;;;;;;;8.65;6.38;;;2.80;99.90;;;;;;5029971;28;20624;-58
2021/11/28 05:04:29;;;;;;;7.28;6.57;;;2.70;99.90;;;;;;5030126;28;20205;-59
2021/11/28 05:07:26;;;;;;;10.98;6.78;;;2.60;99.90;;;;;;5013283;28;20259;-59
2021/11/28 05:09:57;;;;;;;7.47;6.00;;;2.50;99.90;;;;;;5048203;28;20562;-59
2021/11/28 05:12:30;;;;;;;7.05;6.35;;;2.50;99.90;;;;;;5045921;28;20312;-58
2021/11/28 05:14:59;;;;;;;11.60;6.53;;;2.60;99.90;;;;;;5046684;28;20622;-58
2021/11/28 05:17:28;;;;;;;8.80;6.78;;;2.70;99.90;;;;;;5029823;28;20614;-58
2021/11/28 05:20:00;;;;;;;7.43;6.00;;;2.80;99.90;;;;;;5030648;28;20643;-59
2021/11/28 05:22:44;;;;;;;9.40;6.65;;;2.80;99.90;;;;;;5044040;28;20242;-58
2021/11/28 05:25:14;;;;;;;12.20;6.93;;;2.90;99.90;;;;;;5029948;28;20224;-58
2021/11/28 05:27:46;;;;;;;13.55;8.30;;;2.90;99.90;;;;;;5046527;28;20274;-59
2021/11/28 05:30:17;;;;;;;7.07;6.38;;;2.90;99.90;;;;;;5030459;28;20212;-59
2021/11/28 05:33:04;;;;;;;9.93;6.35;;;2.80;99.90;;;;;;5030993;28;20221;-58
2021/11/28 05:35:51;;;;;;;8.05;6.60;;;2.80;99.90;;;;;;5031182;28;20197;-58
2021/11/28 05:38:38;;;;;;;8.48;7.32;;;2.80;99.90;;;;;;5033611;28;20212;-60
2021/11/28 05:41:07;;;;;;;11.98;6.95;;;2.90;99.90;;;;;;5050166;28;20279;-59
2021/11/28 05:43:38;;;;;;;8.55;6.63;;;2.90;99.90;;;;;;5036557;28;20221;-57
2021/11/28 05:46:09;;;;;;;7.70;6.65;;;2.80;99.90;;;;;;5031075;28;20193;-61
2021/11/28 05:48:56;;;;;;;8.23;6.00;;;2.80;99.90;;;;;;5031155;28;20267;-58
2021/11/28 05:51:51;;;;;;;8.55;6.80;;;2.80;99.90;;;;;;5047995;28;20694;-59
2021/11/28 05:54:20;;;;;;;8.32;7.30;;;2.70;99.90;;;;;;5049899;28;20255;-58
2021/11/28 05:56:49;;;;;;;8.18;6.47;;;2.60;99.90;;;;;;5050171;28;20275;-59
2021/11/28 05:59:18;;;;;;;10.77;6.60;;;2.60;99.90;;;;;;5049655;28;20201;-58
2021/11/28 06:01:47;;;;;;;8.93;8.02;;;2.70;99.90;;;;;;5034334;28;20241;-58
2021/11/28 06:04:17;;;;;;;11.35;7.50;;;2.80;99.90;;;;;;5033411;28;20209;-58
2021/11/28 06:07:23;;;;;;;16.45;10.15;;;2.70;99.90;;;;;;5011436;28;20245;-59
2021/11/28 06:09:51;;;;;;;12.85;8.90;;;2.60;99.90;;;;;;5009660;28;20648;-59
2021/11/28 06:12:21;;;;;;;16.52;9.80;;;2.50;99.90;;;;;;5012688;28;20696;-57
2021/11/28 06:14:49;;;;;;;15.77;9.20;;;2.50;99.90;;;;;;5033259;28;20204;-58
2021/11/28 06:17:22;;;;;;;14.30;8.40;;;2.50;99.90;;;;;;5032646;28;20232;-59
2021/11/28 06:20:12;;;;;;;12.38;8.15;;;2.60;99.90;;;;;;5034499;28;20232;-60
2021/11/28 06:22:43;;;;;;;17.20;8.57;;;2.60;99.90;;;;;;5053487;28;20315;-57
2021/11/28 06:25:12;;;;;;;16.08;9.35;;;2.60;99.90;;;;;;5053020;28;20643;-57
2021/11/28 06:28:00;;;;;;;17.02;9.18;;;2.60;99.90;;;;;;5047899;28;20229;-60
2021/11/28 06:30:28;;;;;;;13.18;7.80;;;2.60;99.90;;;;;;5033350;28;20200;-60
2021/11/28 06:33:27;;;;;;;15.70;7.85;;;;;;;;;;5033639;28;20875;-58
2021/11/28 06:36:14;;;;;;;9.98;7.22;;;2.70;99.90;;;;;;5033984;28;20204;-58
2021/11/28 06:39:01;;;;;;;9.10;7.38;;;2.70;99.90;;;;;;5034163;28;20225;-59
2021/11/28 06:41:47;;;;;;;12.60;7.45;;;2.80;99.90;;;;;;5033889;28;20688;-60
2021/11/28 06:44:19;;;;;;;10.75;7.93;;;2.80;99.90;;;;;;5049166;28;20634;-58
2021/11/28 06:46:48;;;;;;;10.45;8.10;;;2.70;99.90;;;;;;5032509;28;20271;-60
2021/11/28 06:49:18;;;;;;;13.02;9.68;;;2.60;99.90;;;;;;5032646;28;20199;-58
2021/11/28 06:52:07;;;;;;;13.20;8.88;;;2.70;99.90;;;;;;5032920;28;20307;-58
2021/11/28 06:54:53;;;;;;;17.38;11.52;;;2.70;99.90;;;;;;5033457;28;20228;-58
2021/11/28 06:57:21;;;;;;;17.42;9.98;;;2.70;99.90;;;;;;5033566;28;20277;-59
2021/11/28 06:59:50;;;;;;;11.65;9.07;;;2.80;99.90;;;;;;5032636;28;20251;-59
2021/11/28 07:02:20;;;;;;;12.15;9.90;;;2.60;99.90;;;;;;5031556;28;20221;-58
2021/11/28 07:04:50;;;;;;;11.25;8.02;;;2.60;99.90;;;;;;5033329;28;20201;-58
2021/11/28 07:07:32;;;;;;;12.00;8.20;;;2.60;99.90;;;;;;5032023;28;20229;-59
2021/11/28 07:10:07;;;;;;;10.15;7.50;;;2.70;99.90;;;;;;5051333;28;20668;-60
2021/11/28 07:12:35;;;;;;;9.68;7.38;;;2.80;99.90;;;;;;5046326;28;20225;-58
2021/11/28 07:15:12;;;;;;;11.20;8.07;;;2.70;99.90;;;;;;5032070;28;20215;-59
2021/11/28 07:17:41;;;;;;;11.95;8.65;;;2.70;99.90;;;;;;5031582;28;20730;-58
2021/11/28 07:20:25;;;;;;;18.73;9.77;;;2.70;99.90;;;;;;5032153;28;20193;-59
2021/11/28 07:22:58;;;;;;;11.30;8.68;;;2.80;99.90;;;;;;5031871;28;20284;-58
2021/11/28 07:25:28;;;;;;;9.95;7.82;;;2.80;99.90;;;;;;5031703;28;20209;-57
2021/11/28 07:28:02;;;;;;;11.07;8.27;;;2.80;99.90;;;;;;5031624;28;20220;-59
2021/11/28 07:30:31;;;;;;;12.02;8.02;;;2.80;99.90;;;;;;5032043;28;20201;-59
2021/11/28 07:33:19;;;;;;;9.93;7.63;;;2.90;99.90;;;;;;5032605;28;20225;-58
2021/11/28 07:36:09;;;;;;;9.90;7.40;;;2.90;99.90;;;;;;5032822;28;20193;-59
2021/11/28 07:38:44;;;;;;;10.93;8.50;;;3.00;99.90;;;;;;5038180;28;20631;-60
2021/11/28 07:41:13;;;;;;;9.23;8.27;;;3.00;99.90;;;;;;5057827;28;20196;-60
2021/11/28 07:43:51;;;;;;;11.20;8.43;;;3.10;99.90;;;;;;5036909;28;20275;-58
2021/11/28 07:46:38;;;;;;;11.93;7.13;;;3.10;99.90;;;;;;5032128;28;20228;-58
2021/11/28 07:49:13;;;;;;;13.32;9.40;;;3.20;99.90;;;;;;5049343;28;20192;-59
2021/11/28 07:51:43;;;;;;;11.38;8.15;;;3.20;99.90;;;;;;5033630;28;20284;-60
2021/11/28 07:54:15;;;;;;;11.95;7.53;;;3.30;99.90;;;;;;5061740;28;20219;-58
2021/11/28 07:56:44;;;;;;;15.13;8.20;;;3.10;99.90;;;;;;5050957;28;20227;-58
2021/11/28 07:59:33;;;;;;;13.05;8.80;;;2.90;99.90;;;;;;5043651;28;20192;-60
2021/11/28 08:02:05;;;;;;;16.42;9.60;;;2.70;99.90;;;;;;5067217;28;20220;-60
2021/11/28 08:04:42;;;;;;;11.68;8.63;;;2.70;99.90;;;;;;5052364;28;20220;-58
2021/11/28 08:07:44;;;;;;;11.75;9.05;;;2.80;99.90;;;;;;5012355;28;20710;-58
2021/11/28 08:10:28;;;;;;;13.02;8.73;;;2.90;99.90;;;;;;5032459;28;20197;-59
2021/11/28 08:12:57;;;;;;;13.40;9.70;;;3.00;99.90;;;;;;5043126;28;20270;-58
2021/11/28 08:15:26;;;;;;;13.02;9.77;;;2.90;99.90;;;;;;5046698;28;20193;-58
2021/11/28 08:17:54;;;;;;;12.98;8.45;;;2.90;99.90;;;;;;5031508;28;20286;-60
2021/11/28 08:20:23;;;;;;;15.90;8.43;;;2.90;99.90;;;;;;5032142;28;20197;-59
2021/11/28 08:22:54;;;;;;;14.75;9.00;;;2.90;99.90;;;;;;5031465;28;20268;-58
2021/11/28 08:25:23;;;;;;;12.85;8.90;;;3.00;99.90;;;;;;5032005;28;20216;-59
2021/11/28 08:27:51;;;;;;;11.48;8.38;;;3.10;99.90;;;;;;5031453;28;20223;-59
2021/11/28 08:30:19;;;;;;;16.40;8.55;;;3.20;99.90;;;;;;5032091;28;20189;-60
2021/11/28 08:33:02;;;;;;;12.50;9.05;;;3.20;99.90;;;;;;5031499;28;20228;-58
2021/11/28 08:35:48;;;;;;;10.20;8.57;;;3.20;99.90;;;;;;5031762;28;20603;-58
2021/11/28 08:38:18;;;;;;;11.80;8.90;;;3.30;99.90;;;;;;5029904;28;20224;-61
2021/11/28 08:40:48;;;;;;;12.93;9.10;;;3.30;99.90;;;;;;5049394;28;20191;-60
2021/11/28 08:43:16;;;;;;;14.20;11.07;;;3.20;99.90;;;;;;5045116;28;20229;-58
2021/11/28 08:45:44;;;;;;;16.67;9.48;;;;;;;;;;5031935;28;20220;-57
2021/11/28 08:48:13;;;;;;;12.80;9.10;;;3.20;99.90;;;;;;5050915;28;20636;-58
2021/11/28 08:50:41;;;;;;;13.15;10.30;;;3.20;99.90;;;;;;5047903;28;20193;-59
2021/11/28 08:53:10;;;;;;;15.52;10.93;;;3.30;99.90;;;;;;5046620;28;20215;-59
2021/11/28 08:55:40;;;;;;;17.58;12.52;;;3.30;99.90;;;;;;5040280;28;20193;-59
2021/11/28 08:58:08;;;;;;;18.27;10.88;;;3.40;99.90;;;;;;5031264;28;20220;-59
2021/11/28 09:00:36;;;;;;;12.82;9.18;;;3.40;99.90;;;;;;5050015;28;20189;-60
2021/11/28 09:03:04;;;;;;;14.48;10.32;;;3.40;99.90;;;;;;5051120;28;20307;-58
2021/11/28 09:05:32;;;;;;;16.48;12.15;;;3.40;99.90;;;;;;5043419;28;20201;-57
2021/11/28 09:08:02;;;;;;;14.05;10.88;;;3.40;99.90;;;;;;5031058;28;20227;-58
2021/11/28 09:10:31;;;;;;;18.60;12.10;;;3.40;99.90;;;;;;5031535;28;20291;-60
2021/11/28 09:13:01;;;;;;;14.10;10.65;;;3.40;99.90;;;;;;5031396;28;20257;-59
2021/11/28 09:15:29;;;;;;;12.77;9.88;;;3.40;99.90;;;;;;5031324;28;20196;-58
2021/11/28 09:18:00;;;;;;;14.63;10.35;;;3.30;99.90;;;;;;5031095;28;20267;-58
2021/11/28 09:20:29;;;;;;;11.80;9.63;;;3.30;99.90;;;;;;5031431;28;20223;-60
2021/11/28 09:25:44;;;;;;;14.82;10.93;;;3.40;99.90;;;;;;5032190;28;20220;-58
2021/11/28 09:28:14;;;;;;;14.18;11.43;;;3.30;99.90;;;;;;5035187;28;20228;-59
2021/11/28 09:30:42;;;;;;;16.30;11.55;;;3.30;99.90;;;;;;5035472;28;20432;-59
2021/11/28 09:33:10;;;;;;;15.35;11.02;;;3.30;99.90;;;;;;5036326;28;20244;-60
2021/11/28 09:35:39;;;;;;;15.10;11.98;;;3.30;99.90;;;;;;5055323;28;20227;-59
2021/11/28 09:38:07;;;;;;;17.75;12.40;;;3.20;99.90;;;;;;5037986;28;20231;-58
2021/11/28 09:40:35;;;;;;;20.60;13.25;;;3.30;99.90;;;;;;5050960;28;20189;-60
2021/11/28 09:43:05;;;;;;;19.13;13.60;;;3.30;99.90;;;;;;5054814;28;20215;-59
2021/11/28 09:45:35;;;;;;;20.00;13.13;;;3.40;99.90;;;;;;5054650;28;20208;-58
2021/11/28 09:48:05;;;;;;;17.10;11.50;;;3.50;99.90;;;;;;5053221;28;20633;-59
2021/11/28 09:50:33;;;;;;;12.10;9.70;;;3.60;99.90;;;;;;5055412;28;20184;-59
2021/11/28 09:53:03;;;;;;;15.40;11.00;;;3.60;99.90;;;;;;5036583;28;20282;-59
2021/11/28 09:55:32;;;;;;;14.90;10.52;;;3.60;99.90;;;;;;5034828;28;20185;-58
2021/11/28 09:58:01;;;;;;;16.58;10.65;;;3.70;99.90;;;;;;5034383;28;20221;-59
2021/11/28 10:00:31;;;;;;;20.98;13.90;;;3.80;99.90;;;;;;5047844;28;20570;-60
2021/11/28 10:03:01;;;;;;;20.08;14.82;;;3.50;99.90;;;;;;5054067;28;20228;-59
2021/11/28 10:05:30;;;;;;;19.02;13.13;;;3.50;99.90;;;;;;5048119;28;20197;-58
2021/11/28 10:07:59;;;;;;;18.48;12.45;;;3.50;99.90;;;;;;5045180;28;20590;-59
2021/11/28 10:10:28;;;;;;;24.40;16.88;;;3.50;99.90;;;;;;5040898;28;20539;-59
2021/11/28 10:12:56;;;;;;;21.85;14.45;;;3.60;99.90;;;;;;5051675;28;20702;-60
2021/11/28 10:15:27;;;;;;;20.23;13.82;;;3.60;99.90;;;;;;5054048;28;20208;-59
2021/11/28 10:17:56;;;;;;;19.50;12.55;;;3.70;99.90;;;;;;5053881;28;20222;-58
2021/11/28 10:20:27;;;;;;;19.98;12.68;;;3.70;99.90;;;;;;5057507;28;20272;-59
2021/11/28 10:22:56;;;;;;;19.50;12.23;;;3.70;99.90;;;;;;5060381;28;20212;-59
2021/11/28 10:25:27;;;;;;;17.30;11.95;;;3.80;99.90;;;;;;5053822;28;20193;-58
2021/11/28 10:27:58;;;;;;;25.58;14.02;;;3.90;99.90;;;;;;5045287;28;20748;-58
2021/11/28 10:30:37;;;;;;;18.60;12.55;;;3.80;99.90;;;;;;5033017;28;20204;-59
2021/11/28 10:33:07;;;;;;;19.25;13.57;;;3.80;99.90;;;;;;5033933;28;20660;-59
2021/11/28 10:35:37;;;;;;;20.50;13.73;;;3.60;99.90;;;;;;5034264;28;20193;-58
2021/11/28 10:38:14;;;;;;;17.95;12.50;;;3.60;99.90;;;;;;5032550;28;20231;-58
2021/11/28 10:40:46;;;;;;;18.55;11.93;;;3.60;99.90;;;;;;5034092;28;20202;-59
2021/11/28 10:43:17;;;;;;;16.33;13.50;;;3.70;99.90;;;;;;5033522;28;20217;-59
2021/11/28 10:45:49;;;;;;;16.80;12.52;;;3.70;99.90;;;;;;5033793;28;20201;-58
2021/11/28 10:48:23;;;;;;;17.52;12.05;;;3.70;99.90;;;;;;5033512;28;20256;-58
2021/11/28 10:50:54;;;;;;;20.10;12.05;;;3.80;99.90;;;;;;5034247;28;20640;-59
2021/11/28 10:53:24;;;;;;;20.83;12.75;;;3.90;99.90;;;;;;5033381;28;20233;-59
2021/11/28 10:55:54;;;;;;;18.40;12.32;;;3.90;99.90;;;;;;5033566;28;20424;-59
2021/11/28 10:58:25;;;;;;;21.17;14.57;;;3.90;99.90;;;;;;5048607;28;20220;-59
2021/11/28 11:01:06;;;;;;;16.88;11.60;;;3.90;99.90;;;;;;5050644;28;20192;-59
2021/11/28 11:03:37;;;;;;;15.75;12.05;;;3.90;99.90;;;;;;5053100;28;20224;-59
2021/11/28 11:06:18;;;;;;;18.83;12.48;;;3.80;99.90;;;;;;5048951;28;20221;-58
2021/11/28 11:08:50;;;;;;;20.00;12.32;;;3.60;99.90;;;;;;5033385;28;20798;-58
2021/11/28 11:11:18;;;;;;;22.27;12.90;;;3.80;99.90;;;;;;5031804;28;20601;-60
2021/11/28 11:13:57;;;;;;;19.30;13.60;;;3.80;99.90;;;;;;5033222;28;20255;-59
2021/11/28 11:16:33;;;;;;;22.60;13.82;;;;;;;;;;5049655;28;20271;-58
2021/11/28 11:19:28;;;;;;;21.42;15.38;;;4.10;99.90;;;;;;5052731;28;20214;-58
2021/11/28 11:22:11;;;;;;;25.02;15.15;;;4.10;99.90;;;;;;5048651;28;20224;-59
2021/11/28 11:24:43;;;;;;;22.27;16.00;;;4.10;99.90;;;;;;5033122;28;20670;-58
2021/11/28 11:27:14;;;;;;;24.30;16.10;;;3.90;99.90;;;;;;5032035;28;20225;-58
2021/11/28 11:29:48;;;;;;;25.98;16.73;;;4.00;99.90;;;;;;5052106;28;20192;-60
2021/11/28 11:32:17;;;;;;;25.35;15.13;;;4.10;99.90;;;;;;5052647;28;20223;-59
2021/11/28 11:34:51;;;;;;;24.70;16.67;;;4.20;99.90;;;;;;5052816;28;20218;-57
2021/11/28 11:37:24;;;;;;;23.35;16.98;;;4.20;99.90;;;;;;5044590;28;20227;-59
2021/11/28 11:39:56;;;;;;;23.15;16.02;;;4.20;99.90;;;;;;5034220;28;20185;-58
2021/11/28 11:42:28;;;;;;;31.67;17.42;;;4.10;99.90;;;;;;5047987;28;20256;-59
2021/11/28 11:44:57;;;;;;;23.20;17.02;;;4.30;99.90;;;;;;5032823;28;20197;-58
2021/11/28 11:47:25;;;;;;;26.42;18.40;;;4.20;99.90;;;;;;5033141;28;20228;-59
2021/11/28 11:49:54;;;;;;;28.63;18.75;;;4.20;99.90;;;;;;5064025;28;20189;-59
2021/11/28 11:52:24;;;;;;;27.67;19.40;;;4.30;99.90;;;;;;5047432;28;20299;-59
2021/11/28 11:54:54;;;;;;;26.17;18.00;;;4.30;99.90;;;;;;5044156;28;20196;-58
2021/11/28 11:57:28;;;;;;;30.25;22.25;;;4.30;99.90;;;;;;5048595;28;20287;-58
2021/11/28 12:00:16;;;;;;;27.02;17.90;;;4.20;99.90;;;;;;5046630;28;20283;-60
2021/11/28 12:02:46;;;;;;;26.02;16.63;;;4.40;99.90;;;;;;5051966;28;20308;-59
2021/11/28 12:05:36;;;;;;;28.88;19.50;;;4.40;99.90;;;;;;5051822;28;20224;-59
2021/11/28 12:08:21;;;;;;;27.48;17.67;;;4.50;99.90;;;;;;5048799;28;20212;-59
2021/11/28 12:11:12;;;;;;;25.48;16.77;;;4.40;99.90;;;;;;5064526;28;20197;-59
2021/11/28 12:14:06;;;;;;;24.13;14.93;;;4.30;99.90;;;;;;5052602;28;20222;-59
2021/11/28 12:16:36;;;;;;;25.55;16.30;;;4.30;99.90;;;;;;5047149;28;20193;-59
2021/11/28 12:19:05;;;;;;;29.42;17.98;;;4.40;99.90;;;;;;5047528;28;20196;-58
2021/11/28 12:21:42;;;;;;;23.58;16.63;;;4.20;99.90;;;;;;5055417;28;20188;-59
2021/11/28 12:24:20;;;;;;;21.63;15.40;;;4.30;99.90;;;;;;5032361;28;20231;-59
2021/11/28 12:26:54;;;;;;;22.73;15.13;;;4.50;99.90;;;;;;5031592;28;20224;-58
2021/11/28 12:29:37;;;;;;;23.33;17.05;;;4.60;99.90;;;;;;5032547;28;20195;-59
2021/11/28 12:32:30;;;;;;;22.50;16.25;;;;;;;;;;5050746;28;20307;-60
2021/11/28 12:35:06;;;;;;;22.73;15.93;;;4.50;99.90;;;;;;5059766;28;20188;-58
2021/11/28 12:37:47;;;;;;;20.85;15.35;;;4.40;99.90;;;;;;5056116;28;20722;-59
2021/11/28 12:40:28;;;;;;;21.60;16.05;;;4.40;99.90;;;;;;5056387;28;20195;-59
2021/11/28 12:42:58;;;;;;;27.48;16.95;;;4.30;99.90;;;;;;5052629;28;20212;-58
2021/11/28 12:45:35;;;;;;;22.17;16.00;;;4.50;99.90;;;;;;5050422;28;20208;-59
2021/11/28 12:48:10;;;;;;;23.95;15.85;;;4.50;99.90;;;;;;5051110;28;20223;-59
2021/11/28 12:50:59;;;;;;;27.60;18.48;;;4.60;99.90;;;;;;5051662;28;20667;-59
2021/11/28 12:53:29;;;;;;;23.10;16.58;;;4.50;99.90;;;;;;5031657;28;20217;-60
2021/11/28 12:56:21;;;;;;;28.77;16.48;;;4.40;99.90;;;;;;5044114;28;20192;-58
2021/11/28 12:59:16;;;;;;;28.30;18.73;;;4.30;99.90;;;;;;5044139;28;20244;-57
2021/11/28 13:02:00;;;;;;;23.33;15.15;;;4.20;99.90;;;;;;5055975;28;20238;-59
2021/11/28 13:04:52;;;;;;;24.45;17.05;;;4.20;99.90;;;;;;5055164;28;20220;-59
2021/11/28 13:07:35;;;;;;;25.17;17.00;;;4.30;99.90;;;;;;5036021;28;20228;-58
2021/11/28 13:10:22;;;;;;;26.52;17.65;;;4.20;99.90;;;;;;5047641;28;20196;-58
2021/11/28 13:12:52;;;;;;;25.45;19.40;;;4.10;99.90;;;;;;5036207;28;20232;-58
2021/11/28 13:15:23;;;;;;;23.60;16.98;;;4.20;99.90;;;;;;5050498;28;20180;-57
2021/11/28 13:17:52;;;;;;;23.80;15.60;;;4.20;99.90;;;;;;5050430;28;20243;-57
2021/11/28 13:20:21;;;;;;;22.23;15.88;;;4.20;99.90;;;;;;5048252;28;20193;-58
2021/11/28 13:23:11;;;;;;;21.95;16.17;;;4.20;99.90;;;;;;5046361;28;20239;-59
2021/11/28 13:25:59;;;;;;;23.05;14.85;;;4.30;99.90;;;;;;5048026;28;20551;-57